Time;durP1;ratioP1;P1;durP2;ratioP2;P2;SDS_P1;SDS_P2;PMS_P1;PMS_P2;Temp;Humidity;BMP_temperature;BMP_pressure;BME280_temperature;BME280_humidity;BME280_pressure;Samples;Min_cycle;Max_cycle;Signal;HPM_P1;HPM_P2
2022/07/24 00:02:07;;;;;;;11.65;9.35;;;;;;;26.72;100.00;99639.47;4964219;28;20042;-74
2022/07/24 00:04:32;;;;;;;14.95;9.52;;;;;;;26.68;100.00;99638.31;4965000;28;20069;-74
2022/07/24 00:06:58;;;;;;;9.70;8.52;;;;;;;26.65;100.00;99644.22;4964013;28;20031;-73
2022/07/24 00:09:23;;;;;;;9.75;8.65;;;;;;;26.64;100.00;99643.38;4963933;28;20034;-74
2022/07/24 00:11:49;;;;;;;12.40;8.65;;;;;;;26.62;100.00;99644.72;4965812;28;20071;-74
2022/07/24 00:14:15;;;;;;;11.88;8.90;;;;;;;26.57;100.00;99641.94;4959817;28;20035;-73
2022/07/24 00:16:40;;;;;;;9.70;8.52;;;;;;;26.53;100.00;99647.00;4965165;28;20042;-74
2022/07/24 00:19:06;;;;;;;10.45;9.43;;;;;;;26.42;100.00;99646.00;4963688;28;20114;-76
2022/07/24 00:21:32;;;;;;;9.70;8.80;;;;;;;26.42;100.00;99647.88;4965726;28;20039;-74
2022/07/24 00:23:58;;;;;;;9.45;8.50;;;;;;;26.41;100.00;99647.06;4964381;28;20066;-74
2022/07/24 00:26:23;;;;;;;10.85;9.00;;;;;;;26.43;100.00;99647.63;4964550;28;20044;-74
2022/07/24 00:28:50;;;;;;;10.43;9.20;;;;;;;26.47;100.00;99643.38;4966668;28;20034;-73
2022/07/24 00:31:15;;;;;;;9.73;8.73;;;;;;;26.44;100.00;99649.28;4964190;28;20419;-73
2022/07/24 00:33:41;;;;;;;10.02;8.80;;;;;;;26.42;100.00;99648.69;4961356;28;20045;-73
2022/07/24 00:36:07;;;;;;;12.80;9.20;;;;;;;26.42;100.00;99639.75;4963816;28;20030;-74
2022/07/24 00:38:33;;;;;;;9.80;8.90;;;;;;;26.41;100.00;99644.34;4965955;28;21963;-73
2022/07/24 00:40:59;;;;;;;9.65;8.60;;;;;;;26.42;100.00;99650.59;4964217;28;20109;-73
2022/07/24 00:43:25;;;;;;;11.02;8.60;;;;;;;26.44;100.00;99643.88;4964454;28;20034;-73
2022/07/24 00:45:51;;;;;;;9.38;8.68;;;;;;;26.45;100.00;99650.09;4966343;28;20051;-73
2022/07/24 00:48:16;;;;;;;13.20;8.85;;;;;;;26.47;100.00;99648.78;4963964;28;20368;-74
2022/07/24 00:50:43;;;;;;;10.25;8.50;;;;;;;26.47;100.00;99648.78;4965137;28;20041;-73
2022/07/24 00:53:10;;;;;;;9.48;8.57;;;;;;;26.15;100.00;99646.81;4962532;28;20361;-73
2022/07/24 00:55:37;;;;;;;13.05;9.05;;;;;;;26.22;100.00;99640.16;4966154;28;21319;-73
2022/07/24 00:58:03;;;;;;;11.18;8.52;;;;;;;26.23;100.00;99641.84;4963195;28;20039;-75
2022/07/24 01:00:29;;;;;;;9.73;8.65;;;;;;;26.22;100.00;99640.16;4966052;28;20045;-75
2022/07/24 01:02:54;;;;;;;10.85;9.75;;;;;;;26.18;100.00;99638.19;4964775;28;20119;-75
2022/07/24 01:05:20;;;;;;;15.10;8.73;;;;;;;26.12;100.00;99637.28;4963086;28;20117;-74
2022/07/24 01:07:46;;;;;;;10.38;9.35;;;;;;;26.08;100.00;99644.25;4965198;28;20034;-75
2022/07/24 01:10:13;;;;;;;10.07;9.13;;;;;;;26.08;100.00;99628.03;4966267;28;20103;-75
2022/07/24 01:12:40;;;;;;;10.32;9.32;;;;;;;26.11;100.00;99635.63;4960406;28;20431;-76
2022/07/24 01:15:08;;;;;;;10.80;9.32;;;;;;;26.11;100.00;99638.34;4966099;28;20450;-73
2022/07/24 01:17:35;;;;;;;10.38;8.27;;;;;;;26.11;100.00;99641.03;4962857;28;20074;-74
2022/07/24 01:20:02;;;;;;;11.60;8.70;;;;;;;26.12;100.00;99639.97;4966230;28;20039;-75
2022/07/24 01:22:27;;;;;;;9.27;8.65;;;;;;;26.10;100.00;99650.22;4945219;28;20050;-74
2022/07/24 01:24:54;;;;;;;10.00;9.00;;;;;;;26.12;100.00;99648.09;4967687;28;20035;-74
2022/07/24 01:27:21;;;;;;;12.10;9.55;;;;;;;26.15;100.00;99644.94;4969607;28;20416;-74
2022/07/24 01:29:48;;;;;;;11.30;9.15;;;;;;;26.17;100.00;99650.91;4966583;28;20038;-74
2022/07/24 01:32:14;;;;;;;9.88;8.35;;;;;;;26.18;100.00;99647.13;4964214;28;20085;-74
2022/07/24 01:34:39;;;;;;;11.80;8.82;;;;;;;26.17;100.00;99650.06;4965726;28;20023;-74
2022/07/24 01:37:06;;;;;;;9.60;8.65;;;;;;;26.15;100.00;99644.94;4969653;28;20039;-74
2022/07/24 01:39:32;;;;;;;11.70;9.35;;;;;;;26.15;100.00;99642.22;4965884;28;20043;-74
2022/07/24 01:41:57;;;;;;;10.68;9.63;;;;;;;26.16;100.00;99635.72;4968749;28;20051;-75
2022/07/24 01:44:23;;;;;;;11.90;8.63;;;;;;;26.13;100.00;99635.41;4968233;28;20039;-74
2022/07/24 01:46:48;;;;;;;11.27;8.80;;;;;;;26.12;100.00;99634.56;4966733;28;20038;-73
2022/07/24 01:49:14;;;;;;;10.15;9.23;;;;;;;26.07;100.00;99638.00;4965112;28;20106;-73
2022/07/24 01:51:40;;;;;;;10.73;8.90;;;;;;;26.01;100.00;99638.16;4966711;28;20038;-75
2022/07/24 01:54:06;;;;;;;10.77;8.98;;;;;;;25.93;100.00;99646.63;4969218;28;20035;-76
2022/07/24 01:56:32;;;;;;;10.60;9.63;;;;;;;25.78;100.00;99649.03;4965526;28;20039;-76
2022/07/24 01:58:58;;;;;;;10.80;9.80;;;;;;;25.61;100.00;99644.38;4968533;28;20100;-74
2022/07/24 02:01:24;;;;;;;10.55;9.45;;;;;;;25.45;100.00;99639.66;4968693;28;20038;-75
2022/07/24 02:03:50;;;;;;;10.00;9.13;;;;;;;25.32;100.00;99637.22;4965529;28;20509;-74
2022/07/24 02:06:16;;;;;;;13.38;10.00;;;;;;;25.18;100.00;99646.63;4968569;28;20064;-75
2022/07/24 02:08:41;;;;;;;10.65;9.65;;;;;;;25.01;100.00;99640.28;4958643;28;20035;-75
2022/07/24 02:11:07;;;;;;;13.35;11.13;;;;;;;24.82;100.00;99650.31;4965541;28;20035;-75
2022/07/24 02:13:33;;;;;;;10.57;9.63;;;;;;;24.86;100.00;99641.53;4967321;28;20046;-74
2022/07/24 02:15:59;;;;;;;13.05;10.27;;;;;;;24.82;100.00;99639.53;4967030;28;20090;-75
2022/07/24 02:18:24;;;;;;;10.85;9.73;;;;;;;24.85;100.00;99634.50;4968896;28;20121;-75
2022/07/24 02:20:50;;;;;;;14.50;11.68;;;;;;;24.79;100.00;99648.94;4965033;28;20066;-75
2022/07/24 02:23:17;;;;;;;12.55;11.02;;;;;;;24.75;100.00;99650.44;4968133;28;20081;-75
2022/07/24 02:25:47;;;;;;;11.80;10.60;;;;;;;24.74;100.00;99648.00;4965706;28;21048;-74
2022/07/24 02:28:13;;;;;;;12.15;10.95;;;;;;;24.72;100.00;99648.22;4960427;28;20459;-75
2022/07/24 02:30:39;;;;;;;12.80;10.98;;;;;;;24.79;100.00;99643.53;4966045;28;20068;-74
2022/07/24 02:33:05;;;;;;;11.77;10.50;;;;;;;24.79;100.00;99651.63;4967268;28;20443;-74
2022/07/24 02:35:30;;;;;;;14.00;10.15;;;;;;;24.81;100.00;99654.06;4967976;28;20042;-74
2022/07/24 02:37:56;;;;;;;12.65;11.40;;;;;;;24.59;100.00;99661.91;4964915;28;20042;-74
2022/07/24 02:40:22;;;;;;;11.32;10.43;;;;;;;24.69;100.00;99654.06;4967777;28;20031;-75
2022/07/24 02:42:47;;;;;;;11.52;10.35;;;;;;;24.76;100.00;99660.19;4964619;28;20079;-75
2022/07/24 02:45:13;;;;;;;15.55;11.50;;;;;;;24.72;100.00;99659.00;4968420;28;20034;-76
2022/07/24 02:47:53;;;;;;;12.32;9.85;;;;;;;24.76;100.00;99652.06;4962191;28;20031;-75
2022/07/24 02:50:21;;;;;;;11.85;10.30;;;;;;;24.82;100.00;99655.72;4960028;28;20027;-74
2022/07/24 02:52:47;;;;;;;12.32;11.15;;;;;;;24.87;100.00;99648.56;4967805;28;20454;-74
2022/07/24 02:55:13;;;;;;;12.05;10.75;;;;;;;24.86;100.00;99646.91;4965403;28;20494;-74
2022/07/24 02:57:39;;;;;;;11.93;10.82;;;;;;;24.88;100.00;99644.84;4966193;28;20039;-75
2022/07/24 03:00:08;;;;;;;12.43;11.23;;;;;;;24.88;100.00;99649.41;4967749;28;20126;-74
2022/07/24 03:02:34;;;;;;;12.60;11.18;;;;;;;24.87;100.00;99643.16;4964507;28;20440;-74
2022/07/24 03:05:00;;;;;;;13.55;11.50;;;;;;;24.88;100.00;99639.44;4967111;28;20478;-74
2022/07/24 03:07:27;;;;;;;11.50;10.50;;;;;;;24.90;100.00;99646.50;4962731;28;20027;-75
2022/07/24 03:09:53;;;;;;;12.73;11.40;;;;;;;24.87;100.00;99643.16;4967866;28;20066;-75
2022/07/24 03:12:18;;;;;;;11.45;10.27;;;;;;;24.85;100.00;99645.31;4964645;28;20062;-75
2022/07/24 03:14:44;;;;;;;12.45;11.20;;;;;;;24.78;100.00;99644.59;4967724;28;20392;-74
2022/07/24 03:17:10;;;;;;;13.50;10.80;;;;;;;24.73;100.00;99646.34;4966343;28;20031;-75
2022/07/24 03:19:35;;;;;;;14.68;11.05;;;;;;;24.68;100.00;99649.72;4966832;28;20070;-75
2022/07/24 03:22:01;;;;;;;11.30;10.35;;;;;;;24.66;100.00;99657.22;4967416;28;20047;-75
2022/07/24 03:24:27;;;;;;;15.00;10.90;;;;;;;24.67;100.00;99663.44;4963943;28;20024;-74
2022/07/24 03:26:52;;;;;;;11.98;10.95;;;;;;;24.63;100.00;99662.25;4966359;28;20043;-74
2022/07/24 03:29:18;;;;;;;12.65;10.35;;;;;;;24.59;100.00;99667.28;4963998;28;20031;-75
2022/07/24 03:31:44;;;;;;;13.52;10.88;;;;;;;24.57;100.00;99664.00;4966388;28;20047;-74
2022/07/24 03:34:09;;;;;;;15.43;10.52;;;;;;;24.56;100.00;99656.97;4964429;28;20027;-73
2022/07/24 03:36:35;;;;;;;12.30;11.05;;;;;;;24.54;100.00;99663.66;4966426;28;20114;-74
2022/07/24 03:39:02;;;;;;;14.55;10.75;;;;;;;24.55;100.00;99676.91;4966402;28;20074;-75
2022/07/24 03:41:27;;;;;;;12.07;10.98;;;;;;;24.50;100.00;99671.38;4964949;28;20445;-74
2022/07/24 03:43:53;;;;;;;14.23;10.98;;;;;;;24.53;100.00;99679.00;4963920;28;20047;-74
2022/07/24 03:46:19;;;;;;;16.05;11.30;;;;;;;24.47;100.00;99678.06;4963730;28;20039;-75
2022/07/24 03:48:45;;;;;;;11.77;10.57;;;;;;;24.44;100.00;99681.22;4966518;28;20043;-74
2022/07/24 03:51:11;;;;;;;12.90;11.30;;;;;;;24.42;100.00;99682.50;4964943;28;20570;-75
2022/07/24 03:53:36;;;;;;;13.20;11.93;;;;;;;24.05;100.00;99693.31;4966594;28;20398;-75
2022/07/24 03:56:06;;;;;;;14.20;13.00;;;;;;;23.67;100.00;99685.50;4966444;28;20034;-75
2022/07/24 03:58:32;;;;;;;16.92;12.32;;;;;;;23.55;100.00;99691.84;4965249;28;20396;-74
2022/07/24 04:00:57;;;;;;;14.02;12.35;;;;;;;23.53;100.00;99689.38;4950296;28;20042;-74
2022/07/24 04:03:23;;;;;;;16.02;12.90;;;;;;;23.71;100.00;99695.81;4965277;28;20034;-74
2022/07/24 04:05:49;;;;;;;15.18;12.40;;;;;;;23.86;100.00;99697.06;4964288;28;20035;-74
2022/07/24 04:08:15;;;;;;;14.27;11.40;;;;;;;24.01;100.00;99702.91;4968343;28;20035;-74
2022/07/24 04:10:40;;;;;;;18.45;11.60;;;;;;;24.11;100.00;99704.25;4964098;28;20023;-74
2022/07/24 04:13:06;;;;;;;13.35;12.05;;;;;;;24.14;100.00;99706.50;4966820;28;20043;-74
2022/07/24 04:15:32;;;;;;;13.52;11.73;;;;;;;23.93;100.00;99705.91;4963781;28;20077;-74
2022/07/24 04:17:57;;;;;;;13.98;12.75;;;;;;;23.68;100.00;99705.16;4964755;28;20038;-74
2022/07/24 04:20:23;;;;;;;12.68;11.35;;;;;;;23.76;100.00;99710.25;4965845;28;20035;-74
2022/07/24 04:22:48;;;;;;;12.43;10.90;;;;;;;23.87;100.00;99709.50;4959842;28;20398;-74
2022/07/24 04:25:14;;;;;;;12.63;11.43;;;;;;;23.98;100.00;99718.69;4966263;28;20102;-74
2022/07/24 04:27:40;;;;;;;12.65;11.60;;;;;;;23.99;100.00;99715.78;4962948;28;20038;-74
2022/07/24 04:30:06;;;;;;;13.63;11.38;;;;;;;23.90;100.00;99714.47;4965805;28;20042;-74
2022/07/24 04:32:31;;;;;;;13.30;11.85;;;;;;;23.94;100.00;99721.03;4963037;28;20123;-74
2022/07/24 04:34:58;;;;;;;12.82;11.57;;;;;;;24.05;100.00;99720.28;4963989;28;20035;-75
2022/07/24 04:37:23;;;;;;;12.52;11.40;;;;;;;23.87;100.00;99725.66;4965651;28;20058;-74
2022/07/24 04:39:49;;;;;;;15.50;11.27;;;;;;;23.80;100.00;99721.44;4962925;28;20065;-73
2022/07/24 04:42:15;;;;;;;17.88;12.23;;;;;;;23.74;100.00;99723.13;4965902;28;20031;-74
2022/07/24 04:44:40;;;;;;;14.10;11.90;;;;;;;23.45;100.00;99729.19;4962197;28;20039;-74
2022/07/24 04:47:06;;;;;;;13.88;12.68;;;;;;;23.37;100.00;99726.78;4949163;28;20043;-74
2022/07/24 04:49:32;;;;;;;13.73;12.18;;;;;;;23.34;100.00;99727.22;4963351;28;20043;-74
2022/07/24 04:51:57;;;;;;;13.63;12.27;;;;;;;23.50;100.00;99726.72;4964989;28;20118;-74
2022/07/24 04:54:23;;;;;;;13.13;11.77;;;;;;;23.61;100.00;99725.97;4966140;28;20058;-74
2022/07/24 04:56:49;;;;;;;13.95;12.45;;;;;;;23.67;100.00;99725.09;4963991;28;20030;-74
2022/07/24 04:59:14;;;;;;;12.82;11.82;;;;;;;23.75;100.00;99727.47;4965296;28;20035;-74
2022/07/24 05:01:40;;;;;;;13.90;12.40;;;;;;;23.80;100.00;99724.13;4970289;28;20106;-75
2022/07/24 05:04:07;;;;;;;13.10;11.80;;;;;;;23.95;100.00;99728.06;4967055;28;20050;-74
2022/07/24 05:06:33;;;;;;;13.40;12.02;;;;;;;24.09;100.00;99726.84;4968867;28;20031;-73
2022/07/24 05:08:59;;;;;;;14.70;11.82;;;;;;;24.23;100.00;99721.34;4966882;28;20046;-74
2022/07/24 05:11:24;;;;;;;13.05;11.65;;;;;;;24.36;100.00;99738.19;4969957;28;20039;-75
2022/07/24 05:13:50;;;;;;;14.40;12.30;;;;;;;24.41;100.00;99735.63;4966187;28;20090;-74
2022/07/24 05:16:16;;;;;;;14.10;12.82;;;;;;;24.52;100.00;99736.72;4968907;28;20452;-74
2022/07/24 05:18:41;;;;;;;17.23;12.55;;;;;;;24.56;100.00;99737.91;4961550;28;20043;-74
2022/07/24 05:21:07;;;;;;;13.20;11.95;;;;;;;24.64;100.00;99736.75;4966254;28;20031;-73
2022/07/24 05:23:33;;;;;;;13.52;11.48;;;;;;;24.69;100.00;99737.72;4968746;28;20019;-74
2022/07/24 05:25:58;;;;;;;12.90;11.48;;;;;;;24.76;100.00;99749.22;4966423;28;20039;-75
2022/07/24 05:28:24;;;;;;;13.82;12.43;;;;;;;24.81;100.00;99752.06;4969772;28;20035;-74
2022/07/24 05:30:50;;;;;;;12.70;11.38;;;;;;;24.87;100.00;99756.53;4965889;28;20118;-74
2022/07/24 05:33:15;;;;;;;12.63;11.43;;;;;;;24.93;100.00;99759.41;4968782;28;20070;-75
2022/07/24 05:35:42;;;;;;;12.57;11.38;;;;;;;24.96;100.00;99758.94;4961777;28;20118;-74
2022/07/24 05:38:08;;;;;;;17.33;12.32;;;;;;;25.02;100.00;99758.03;4963312;28;20110;-74
2022/07/24 05:40:33;;;;;;;14.60;11.95;;;;;;;25.04;100.00;99759.41;4967998;28;20031;-73
2022/07/24 05:42:59;;;;;;;12.60;11.27;;;;;;;25.14;100.00;99756.19;4966133;28;20035;-74
2022/07/24 05:45:25;;;;;;;15.65;11.77;;;;;;;25.23;100.00;99760.16;4969204;28;20043;-74
2022/07/24 05:47:50;;;;;;;13.35;12.15;;;;;;;25.27;100.00;99747.88;4965450;28;20039;-74
2022/07/24 05:50:16;;;;;;;15.07;12.77;;;;;;;25.31;100.00;99764.41;4967964;28;20074;-74
2022/07/24 05:52:42;;;;;;;15.57;11.77;;;;;;;25.37;100.00;99750.78;4961769;28;20035;-74
2022/07/24 05:55:08;;;;;;;12.48;11.15;;;;;;;25.47;100.00;99761.84;4948306;28;20043;-74
2022/07/24 05:57:34;;;;;;;16.73;12.00;;;;;;;25.54;100.00;99762.56;4965163;28;20463;-74
2022/07/24 06:00:00;;;;;;;13.60;11.70;;;;;;;25.58;100.00;99752.94;4968157;28;20038;-74
2022/07/24 06:02:26;;;;;;;14.30;11.45;;;;;;;25.62;100.00;99759.50;4965438;28;20039;-73
2022/07/24 06:04:52;;;;;;;12.55;11.50;;;;;;;25.66;100.00;99766.09;4968105;28;20053;-73
2022/07/24 06:07:17;;;;;;;12.90;11.57;;;;;;;25.73;100.00;99773.28;4965098;28;20035;-73
2022/07/24 06:09:43;;;;;;;17.17;11.52;;;;;;;25.83;100.00;99770.78;4968024;28;20039;-74
2022/07/24 06:12:09;;;;;;;15.45;11.05;;;;;;;25.94;100.00;99772.66;4966553;28;20043;-74
2022/07/24 06:14:35;;;;;;;14.73;12.25;;;;;;;26.01;100.00;99778.75;4966909;28;20030;-74
2022/07/24 06:17:01;;;;;;;14.70;11.57;;;;;;;26.01;100.00;99774.19;4964608;28;20047;-73
2022/07/24 06:19:26;;;;;;;17.25;12.35;;;;;;;26.06;100.00;99773.47;4966326;28;20062;-74
2022/07/24 06:21:52;;;;;;;13.75;11.10;;;;;;;26.08;100.00;99779.47;4967932;28;20039;-74
2022/07/24 06:24:18;;;;;;;14.52;11.43;;;;;;;26.20;100.00;99777.56;4964906;28;20035;-74
2022/07/24 06:26:43;;;;;;;13.02;11.75;;;;;;;26.19;100.00;99775.91;4951296;28;20053;-73
2022/07/24 06:29:09;;;;;;;15.38;11.18;;;;;;;26.25;100.00;99772.28;4966161;28;20047;-74
2022/07/24 06:31:35;;;;;;;12.50;11.30;;;;;;;26.32;100.00;99769.44;4966684;28;20034;-73
2022/07/24 06:34:00;;;;;;;14.45;12.20;;;;;;;26.40;100.00;99777.97;4966923;28;20053;-74
2022/07/24 06:36:27;;;;;;;13.88;12.40;;;;;;;26.48;100.00;99774.91;4962715;28;20103;-74
2022/07/24 06:38:53;;;;;;;13.63;12.27;;;;;;;26.53;100.00;99781.47;4968186;28;20035;-73
2022/07/24 06:41:19;;;;;;;13.68;12.25;;;;;;;26.56;100.00;99783.72;4964910;28;20039;-74
2022/07/24 06:43:45;;;;;;;13.32;12.07;;;;;;;26.64;100.00;99788.72;4968250;28;20165;-74
2022/07/24 06:46:11;;;;;;;15.52;11.27;;;;;;;26.71;100.00;99784.00;4965827;28;20039;-74
2022/07/24 06:48:38;;;;;;;14.98;12.48;;;;;;;26.74;100.00;99783.53;4966328;28;20051;-74
2022/07/24 06:51:04;;;;;;;13.65;12.10;;;;;;;26.82;100.00;99781.22;4965967;28;20035;-74
2022/07/24 06:53:30;;;;;;;15.48;10.98;;;;;;;26.89;100.00;99786.53;4964794;28;20038;-74
2022/07/24 06:55:56;;;;;;;18.77;12.52;;;;;;;26.95;100.00;99785.56;4967364;28;20035;-74
2022/07/24 06:58:21;;;;;;;14.50;12.52;;;;;;;26.95;100.00;99785.56;4964771;28;20069;-73
2022/07/24 07:00:48;;;;;;;12.90;11.68;;;;;;;27.00;100.00;99785.66;4967145;28;20039;-73
2022/07/24 07:03:14;;;;;;;16.13;12.32;;;;;;;27.02;100.00;99780.81;4968638;28;20537;-74
2022/07/24 07:05:40;;;;;;;14.45;12.43;;;;;;;27.04;100.00;99789.50;4963801;28;20490;-73
2022/07/24 07:08:06;;;;;;;14.38;12.20;;;;;;;27.05;100.00;99796.56;4967406;28;20063;-73
2022/07/24 07:10:31;;;;;;;16.20;12.32;;;;;;;27.07;100.00;99783.59;4965964;28;20030;-74
2022/07/24 07:12:57;;;;;;;15.65;12.55;;;;;;;27.12;100.00;99797.22;4963010;28;20171;-74
2022/07/24 07:15:23;;;;;;;13.10;11.57;;;;;;;27.10;100.00;99793.13;4966743;28;20033;-74
2022/07/24 07:17:48;;;;;;;12.70;11.30;;;;;;;27.16;100.00;99797.56;4964698;28;20043;-74
2022/07/24 07:20:14;;;;;;;17.05;12.13;;;;;;;27.25;100.00;99791.50;4968142;28;20117;-73
2022/07/24 07:22:41;;;;;;;13.07;11.75;;;;;;;27.30;100.00;99793.47;4962866;28;20118;-73
2022/07/24 07:25:08;;;;;;;13.48;12.10;;;;;;;27.35;100.00;99792.72;4966971;28;20039;-74
2022/07/24 07:27:35;;;;;;;14.07;11.65;;;;;;;27.38;100.00;99801.19;4965281;28;20035;-73
2022/07/24 07:30:00;;;;;;;13.10;11.82;;;;;;;27.39;100.00;99793.91;4949355;28;20039;-74
2022/07/24 07:32:26;;;;;;;15.43;11.88;;;;;;;27.42;100.00;99801.53;4962858;28;20085;-73
2022/07/24 07:34:52;;;;;;;13.75;11.55;;;;;;;27.50;100.00;99799.22;4964657;28;20046;-72
2022/07/24 07:37:17;;;;;;;12.70;11.20;;;;;;;27.56;100.00;99800.16;4967589;28;20039;-74
2022/07/24 07:39:43;;;;;;;12.13;10.93;;;;;;;27.57;100.00;99799.06;4963624;28;20402;-73
2022/07/24 07:42:09;;;;;;;14.13;11.75;;;;;;;27.67;100.00;99807.38;4966751;28;20039;-73
2022/07/24 07:44:34;;;;;;;13.73;10.80;;;;;;;27.72;100.00;99801.22;4959470;28;20046;-73
2022/07/24 07:47:00;;;;;;;11.48;10.07;;;;;;;27.77;100.00;99793.97;4982927;28;20034;-73
2022/07/24 07:49:25;;;;;;;12.13;10.55;;;;;;;27.85;100.00;99790.84;4981911;28;20084;-74
2022/07/24 07:51:52;;;;;;;11.85;10.68;;;;;;;27.93;100.00;99798.53;4979157;28;20042;-73
2022/07/24 07:54:18;;;;;;;11.63;10.52;;;;;;;28.03;100.00;99795.97;4981257;28;20394;-73
2022/07/24 07:56:44;;;;;;;10.80;9.90;;;;;;;28.17;100.00;99792.91;4982580;28;20403;-73
2022/07/24 07:59:09;;;;;;;11.63;10.55;;;;;;;28.29;100.00;99799.03;4981192;28;20030;-73
2022/07/24 08:01:35;;;;;;;11.55;10.23;;;;;;;28.41;100.00;99794.31;4982133;28;20039;-73
2022/07/24 08:04:02;;;;;;;12.85;10.80;;;;;;;28.51;100.00;99794.44;4981083;28;20030;-74
2022/07/24 08:06:28;;;;;;;12.88;10.32;;;;;;;28.55;100.00;99795.56;4981969;28;20034;-73
2022/07/24 08:08:53;;;;;;;15.52;10.52;;;;;;;28.58;100.00;99795.03;4980451;28;20038;-76
2022/07/24 08:11:19;;;;;;;13.57;10.23;;;;;;;28.65;100.00;99790.25;4977762;28;20027;-72
2022/07/24 08:13:45;;;;;;;10.60;9.65;;;;;;;28.72;100.00;99796.31;4982648;28;20027;-73
2022/07/24 08:16:10;;;;;;;11.27;9.45;;;;;;;28.78;100.00;99795.31;4982095;28;20031;-72
2022/07/24 08:18:36;;;;;;;11.18;9.65;;;;;;;28.87;100.00;99793.75;4981804;28;20082;-73
2022/07/24 08:21:02;;;;;;;11.52;10.43;;;;;;;28.96;99.76;99790.59;4980477;28;20035;-74
2022/07/24 08:23:28;;;;;;;11.25;10.15;;;;;;;29.06;99.39;99790.69;4981789;28;20023;-73
2022/07/24 08:25:54;;;;;;;11.32;9.65;;;;;;;29.15;98.87;99783.72;4981473;28;20089;-74
2022/07/24 08:28:22;;;;;;;10.75;9.75;;;;;;;29.22;97.94;99795.16;4978586;28;20038;-73
2022/07/24 08:30:49;;;;;;;13.15;10.30;;;;;;;29.30;96.88;99794.69;4982090;28;20387;-73
2022/07/24 08:33:15;;;;;;;12.60;10.48;;;;;;;29.36;95.94;99790.97;4983165;28;20394;-73
2022/07/24 08:35:40;;;;;;;13.07;9.90;;;;;;;29.42;95.83;99800.00;4986097;28;20173;-73
2022/07/24 08:38:06;;;;;;;14.38;10.45;;;;;;;29.42;95.01;99789.94;4984660;28;20048;-74
2022/07/24 08:40:35;;;;;;;10.90;9.40;;;;;;;29.42;94.96;99795.38;4985573;28;20077;-75
2022/07/24 08:43:02;;;;;;;10.23;9.23;;;;;;;29.43;94.89;99797.03;4985437;28;20379;-75
2022/07/24 08:45:28;;;;;;;12.30;8.93;;;;;;;29.52;94.64;99789.19;4972645;28;20069;-74
2022/07/24 08:47:56;;;;;;;12.63;10.00;;;;;;;29.62;93.28;99795.53;4966209;28;20043;-73
2022/07/24 08:50:22;;;;;;;11.30;9.65;;;;;;;29.66;92.75;99788.50;4968168;28;20075;-73
2022/07/24 08:52:48;;;;;;;10.77;9.73;;;;;;;29.65;92.38;99786.03;4970273;28;20039;-73
2022/07/24 08:55:14;;;;;;;12.98;9.70;;;;;;;29.66;92.40;99788.50;4966989;28;20031;-73
2022/07/24 08:57:40;;;;;;;10.52;9.43;;;;;;;29.77;91.65;99791.25;4969405;28;20030;-75
2022/07/24 09:00:06;;;;;;;11.40;10.10;;;;;;;29.86;91.24;99789.72;4969548;28;20391;-75
2022/07/24 09:02:33;;;;;;;11.60;9.63;;;;;;;29.93;90.28;99795.75;4966529;28;20660;-74
2022/07/24 09:05:03;;;;;;;11.13;9.85;;;;;;;29.80;90.58;99796.19;4969403;28;20041;-74
2022/07/24 09:07:30;;;;;;;15.27;9.98;;;;;;;29.66;91.33;99791.22;4965693;28;20373;-75
2022/07/24 09:10:07;;;;;;;10.52;9.50;;;;;;;29.80;91.44;99791.59;4965815;28;20408;-74
2022/07/24 09:12:35;;;;;;;10.13;9.30;;;;;;;29.94;90.06;99789.22;4965814;28;20035;-74
2022/07/24 09:15:09;;;;;;;11.93;9.40;;;;;;;30.07;89.20;99796.91;4968924;28;20055;-74
2022/07/24 09:17:35;;;;;;;10.07;9.07;;;;;;;30.17;87.74;99796.97;4965849;28;20357;-74
2022/07/24 09:20:01;;;;;;;9.57;8.63;;;;;;;30.26;86.55;99795.38;4969733;28;20041;-74
2022/07/24 09:22:38;;;;;;;9.85;8.85;;;;;;;30.34;86.02;99800.31;4965651;28;20038;-75
2022/07/24 09:25:05;;;;;;;9.98;9.07;;;;;;;30.34;84.52;99802.19;4968847;28;20035;-74
2022/07/24 09:27:30;;;;;;;11.35;9.55;;;;;;;30.42;84.54;99797.06;4967575;28;20031;-74
2022/07/24 09:29:57;;;;;;;10.85;8.43;;;;;;;30.50;84.66;99793.88;4966701;28;20107;-74
2022/07/24 09:32:24;;;;;;;9.10;8.27;;;;;;;30.58;83.52;99791.69;4968089;28;20047;-74
2022/07/24 09:34:52;;;;;;;10.23;8.63;;;;;;;30.66;83.50;99793.91;4966356;28;20117;-74
2022/07/24 09:37:18;;;;;;;10.00;9.00;;;;;;;30.57;83.60;99800.97;4949910;28;20035;-74
2022/07/24 09:39:43;;;;;;;9.57;8.65;;;;;;;30.54;84.11;99796.06;4966149;28;20065;-74
2022/07/24 09:42:10;;;;;;;10.40;9.48;;;;;;;30.61;84.02;99792.00;4968434;28;20093;-74
2022/07/24 09:44:36;;;;;;;16.15;8.90;;;;;;;30.70;83.82;99795.00;4965359;28;20051;-74
2022/07/24 09:47:08;;;;;;;13.93;8.98;;;;;;;30.75;83.35;99784.16;4968188;28;20105;-74
2022/07/24 09:49:35;;;;;;;8.73;7.88;;;;;;;30.85;82.27;99789.59;4961915;28;20493;-75
2022/07/24 09:52:18;;;;;;;9.02;8.23;;;;;;;30.95;81.40;99792.34;4967693;28;20038;-74
2022/07/24 09:54:47;;;;;;;11.80;8.13;;;;;;;30.95;80.06;99778.72;4960398;28;20150;-74
2022/07/24 09:57:25;;;;;;;10.82;8.00;;;;;;;31.02;79.78;99784.72;4961499;28;20027;-75
2022/07/24 09:59:57;;;;;;;9.93;8.40;;;;;;;31.11;79.53;99777.66;4977047;28;20505;-75
2022/07/24 10:02:29;;;;;;;9.48;8.48;;;;;;;31.21;78.66;99780.41;4965600;28;20038;-73
2022/07/24 10:04:56;;;;;;;10.23;7.75;;;;;;;31.29;77.05;99782.56;4968246;28;20039;-74
2022/07/24 10:07:24;;;;;;;9.02;8.13;;;;;;;31.34;76.70;99778.22;4964662;28;20038;-75
2022/07/24 10:09:55;;;;;;;8.55;7.70;;;;;;;31.38;74.88;99779.31;4967073;28;20047;-74
2022/07/24 10:12:26;;;;;;;12.38;8.98;;;;;;;31.40;74.25;99788.06;4965511;28;20039;-75
2022/07/24 10:14:59;;;;;;;9.48;8.48;;;;;;;31.43;74.68;99782.03;4967999;28;20039;-74
2022/07/24 10:17:53;;;;;;;9.02;8.23;;;;;;;31.29;71.10;99779.84;4964979;28;20039;-75
2022/07/24 10:20:36;;;;;;;9.63;8.57;;;;;;;31.23;72.38;99772.75;4957537;28;20039;-74
2022/07/24 10:23:04;;;;;;;11.75;8.98;;;;;;;31.24;71.19;99768.94;4966832;28;20398;-74
2022/07/24 10:25:52;;;;;;;8.82;7.70;;;;;;;31.36;72.44;99779.56;4967200;28;20542;-74
2022/07/24 10:28:42;;;;;;;9.23;8.32;;;;;;;31.39;73.25;99768.13;4965866;28;20506;-74
2022/07/24 10:31:11;;;;;;;8.93;8.10;;;;;;;31.44;74.23;99772.75;4965181;28;20043;-74
2022/07/24 10:33:40;;;;;;;9.07;8.30;;;;;;;31.46;74.22;99771.38;4968331;28;20373;-75
2022/07/24 10:36:19;;;;;;;9.82;8.30;;;;;;;31.61;72.97;99762.41;4966816;28;20108;-74
2022/07/24 10:39:02;;;;;;;10.97;8.87;;;;;;;31.75;72.65;99768.94;4966311;28;20043;-74
2022/07/24 10:41:30;;;;;;;9.52;8.48;;;;;;;31.84;72.15;99767.25;4964638;28;20380;-73
2022/07/24 10:44:17;;;;;;;12.68;8.13;;;;;;;31.89;70.40;99759.06;4968799;28;20480;-74
2022/07/24 10:47:04;;;;;;;10.10;8.25;;;;;;;31.92;71.10;99754.97;4953723;28;20051;-74
2022/07/24 10:49:51;;;;;;;9.02;8.13;;;;;;;31.97;71.25;99749.50;4965778;28;20023;-75
2022/07/24 10:52:24;;;;;;;10.13;8.95;;;;;;;32.06;70.83;99753.28;4964529;28;20023;-75
2022/07/24 10:55:27;;;;;;;8.73;7.90;;;;;;;32.21;69.54;99746.97;4961318;28;20085;-75
2022/07/24 10:57:57;;;;;;;9.50;8.55;;;;;;;32.27;68.96;99748.59;4967336;28;20081;-73
2022/07/24 11:00:25;;;;;;;8.82;7.90;;;;;;;32.26;68.98;99746.94;4968282;28;20118;-74
2022/07/24 11:03:17;;;;;;;9.63;8.35;;;;;;;32.39;67.06;99746.34;4965644;28;20039;-74
2022/07/24 11:05:53;;;;;;;9.32;8.10;;;;;;;32.47;66.52;99741.09;4954234;28;20451;-74
2022/07/24 11:08:22;;;;;;;9.57;8.10;;;;;;;32.53;66.69;99731.78;4968870;28;20038;-74
2022/07/24 11:10:53;;;;;;;8.80;8.05;;;;;;;32.57;68.49;99732.03;4948697;28;20067;-75
2022/07/24 11:13:31;;;;;;;9.52;8.70;;;;;;;32.57;68.70;99726.56;4968624;28;20027;-74
2022/07/24 11:16:17;;;;;;;9.82;8.10;;;;;;;32.61;69.62;99730.34;4965761;28;20507;-74
2022/07/24 11:19:02;;;;;;;8.05;7.25;;;;;;;32.70;68.80;99719.66;4954077;28;20166;-74